createdAt,value
2018-12-09T00:00:42.805Z,0
2018-12-09T00:01:43.385Z,0
2018-12-09T00:02:44.052Z,0
2018-12-09T00:03:44.668Z,0
2018-12-09T00:04:45.246Z,0
2018-12-09T00:05:45.819Z,0
2018-12-09T00:06:46.444Z,0
2018-12-09T00:07:47.020Z,0
2018-12-09T00:08:47.598Z,0
2018-12-09T00:09:48.274Z,0
2018-12-09T00:10:48.849Z,0
2018-12-09T00:11:49.426Z,0
2018-12-09T00:12:50.001Z,0
2018-12-09T00:13:50.578Z,0
2018-12-09T00:14:51.156Z,0
2018-12-09T00:16:36.296Z,0
2018-12-09T00:17:36.874Z,0
2018-12-09T00:18:37.453Z,0
2018-12-09T00:19:38.026Z,0
2018-12-09T00:20:38.643Z,0
2018-12-09T00:21:39.222Z,0
2018-12-09T00:22:39.798Z,0
2018-12-09T00:23:40.371Z,0
2018-12-09T00:24:40.946Z,0
2018-12-09T00:25:41.571Z,0
2018-12-09T00:26:42.149Z,0
2018-12-09T00:27:42.774Z,0
2018-12-09T00:28:43.400Z,0
2018-12-09T00:29:43.976Z,0
2018-12-09T00:30:44.746Z,0
2018-12-09T00:31:45.523Z,0
2018-12-09T00:32:46.298Z,0
2018-12-09T00:33:46.872Z,0
2018-12-09T00:34:47.447Z,0
2018-12-09T00:35:48.026Z,0
2018-12-09T00:36:48.601Z,0
2018-12-09T00:38:33.692Z,0
2018-12-09T00:39:34.281Z,0
2018-12-09T00:40:34.889Z,0
2018-12-09T00:41:35.468Z,0
2018-12-09T00:42:43.282Z,0
2018-12-09T00:43:37.653Z,0
2018-12-09T00:44:38.230Z,0
2018-12-09T00:45:38.806Z,0
2018-12-09T00:46:39.382Z,0
2018-12-09T00:47:40.007Z,0
2018-12-09T00:48:40.585Z,0
2018-12-09T00:49:41.252Z,0
2018-12-09T00:50:41.828Z,0
2018-12-09T00:51:42.405Z,0
2018-12-09T00:52:43.029Z,0
2018-12-09T00:53:43.606Z,0
2018-12-09T00:54:44.181Z,0
2018-12-09T00:55:44.755Z,0
2018-12-09T00:56:45.332Z,0
2018-12-09T00:57:45.906Z,0
2018-12-09T00:58:46.482Z,0
2018-12-09T01:00:31.571Z,0
2018-12-09T01:01:32.195Z,0
2018-12-09T01:02:32.768Z,0
2018-12-09T01:03:33.344Z,0
2018-12-09T01:04:33.919Z,0
2018-12-09T01:05:34.495Z,0
2018-12-09T01:06:35.070Z,0
2018-12-09T01:07:35.697Z,0
2018-12-09T01:08:36.276Z,0
2018-12-09T01:09:36.893Z,0
2018-12-09T01:10:37.518Z,0
2018-12-09T01:11:38.091Z,0
2018-12-09T01:12:38.717Z,0
2018-12-09T01:13:39.292Z,0
2018-12-09T01:14:39.913Z,0
2018-12-09T01:15:40.489Z,0
2018-12-09T01:16:41.063Z,0
2018-12-09T01:17:41.689Z,0
2018-12-09T01:18:42.264Z,0
2018-12-09T01:19:42.841Z,0
2018-12-09T01:20:43.416Z,0
2018-12-09T01:22:28.505Z,0
2018-12-09T01:24:44.403Z,0
2018-12-09T01:29:39.092Z,0
2018-12-09T01:31:24.232Z,0
2018-12-09T01:33:09.373Z,0
2018-12-09T01:34:54.465Z,0
2018-12-09T01:36:39.556Z,0
2018-12-09T01:37:40.133Z,0
2018-12-09T01:38:40.708Z,0
2018-12-09T01:39:41.285Z,0
2018-12-09T01:40:41.858Z,0
2018-12-09T01:41:42.720Z,0
2018-12-09T01:42:43.295Z,0
2018-12-09T01:43:43.871Z,0
2018-12-09T01:44:44.446Z,0
2018-12-09T01:45:45.019Z,0
2018-12-09T01:47:47.162Z,0
2018-12-09T01:48:47.786Z,0
2018-12-09T01:49:48.359Z,0
2018-12-09T01:50:48.984Z,0
2018-12-09T01:51:49.658Z,0
2018-12-09T01:52:50.476Z,0
2018-12-09T01:53:51.051Z,0
2018-12-09T01:54:51.626Z,0
2018-12-09T01:55:52.201Z,0
2018-12-09T01:56:52.779Z,0
2018-12-09T01:58:38.017Z,0
2018-12-09T01:59:38.593Z,0
2018-12-09T02:00:39.346Z,0
2018-12-09T02:01:39.920Z,0
2018-12-09T02:02:40.494Z,0
2018-12-09T02:03:41.069Z,0
2018-12-09T02:04:41.642Z,0
2018-12-09T02:05:42.219Z,0
2018-12-09T02:06:42.792Z,0
2018-12-09T02:07:43.464Z,0
2018-12-09T02:08:44.003Z,0
2018-12-09T02:09:44.577Z,0
2018-12-09T02:10:45.302Z,0
2018-12-09T02:13:13.529Z,0
2018-12-09T02:14:14.100Z,0
2018-12-09T02:15:14.714Z,0
2018-12-09T02:16:15.281Z,0
2018-12-09T02:17:15.848Z,0
2018-12-09T02:18:16.416Z,0
2018-12-09T02:19:16.982Z,0
2018-12-09T02:20:17.550Z,0
2018-12-09T02:21:18.118Z,0
2018-12-09T02:22:18.689Z,0
2018-12-09T02:23:19.253Z,0
2018-12-09T02:24:19.822Z,0
2018-12-09T02:25:20.393Z,0
2018-12-09T02:26:21.010Z,0
2018-12-09T02:27:21.856Z,0
2018-12-09T02:28:22.428Z,0
2018-12-09T02:29:22.995Z,0
2018-12-09T02:30:23.608Z,0
2018-12-09T02:31:24.180Z,0
2018-12-09T02:32:24.746Z,0
2018-12-09T02:33:25.365Z,0
2018-12-09T02:35:10.283Z,0
2018-12-09T02:36:10.851Z,0
2018-12-09T02:37:11.421Z,0
2018-12-09T02:38:12.030Z,0
2018-12-09T02:39:12.564Z,0
2018-12-09T02:40:13.174Z,0
2018-12-09T02:41:13.743Z,0
2018-12-09T02:42:14.366Z,0
2018-12-09T02:43:14.931Z,0
2018-12-09T02:44:15.502Z,0
2018-12-09T02:45:16.116Z,0
2018-12-09T02:46:16.811Z,0
2018-12-09T02:47:17.421Z,0
2018-12-09T02:48:17.991Z,0
2018-12-09T02:49:18.609Z,0
2018-12-09T02:50:19.180Z,0
2018-12-09T02:51:19.752Z,0
2018-12-09T02:52:20.318Z,0
2018-12-09T02:53:20.888Z,0
2018-12-09T02:54:21.459Z,0
2018-12-09T02:55:22.079Z,0
2018-12-09T02:56:36.465Z,0
2018-12-09T02:57:37.035Z,0
2018-12-09T02:58:37.604Z,0
2018-12-09T02:59:38.532Z,0
2018-12-09T03:00:39.100Z,0
2018-12-09T03:01:39.668Z,0
2018-12-09T03:02:40.239Z,0
2018-12-09T03:03:40.809Z,0
2018-12-09T03:04:41.377Z,0
2018-12-09T03:05:41.949Z,0
2018-12-09T03:06:42.565Z,0
2018-12-09T03:07:43.133Z,0
2018-12-09T03:08:43.704Z,0
2018-12-09T03:09:44.274Z,0
2018-12-09T03:10:45.112Z,0
2018-12-09T03:11:45.682Z,0
2018-12-09T03:12:46.857Z,0
2018-12-09T03:13:47.425Z,0
2018-12-09T03:14:48.004Z,0
2018-12-09T03:15:48.638Z,0
2018-12-09T03:16:49.259Z,0
2018-12-09T03:18:34.345Z,0
2018-12-09T03:19:34.976Z,0
2018-12-09T03:20:35.549Z,0
2018-12-09T03:21:36.130Z,0
2018-12-09T03:22:36.698Z,0
2018-12-09T03:23:37.274Z,0
2018-12-09T03:24:37.850Z,0
2018-12-09T03:25:38.434Z,0
2018-12-09T03:26:39.245Z,0
2018-12-09T03:27:39.823Z,0
2018-12-09T03:28:40.405Z,0
2018-12-09T03:29:41.017Z,0
2018-12-09T03:30:41.594Z,0
2018-12-09T03:31:42.170Z,0
2018-12-09T03:32:42.748Z,0
2018-12-09T03:33:43.322Z,0
2018-12-09T03:34:43.945Z,0
2018-12-09T03:35:44.519Z,0
2018-12-09T03:36:45.145Z,0
2018-12-09T03:37:45.720Z,0
2018-12-09T03:41:39.533Z,0
2018-12-09T03:42:40.149Z,0
2018-12-09T03:43:40.719Z,0
2018-12-09T03:44:41.278Z,0
2018-12-09T03:45:43.476Z,0
2018-12-09T03:46:43.412Z,0
2018-12-09T03:47:43.976Z,0
2018-12-09T03:48:44.754Z,0
2018-12-09T03:49:59.132Z,0
2018-12-09T03:50:59.784Z,0
2018-12-09T03:52:00.403Z,0
2018-12-09T03:53:00.970Z,0
2018-12-09T03:54:01.539Z,0
2018-12-09T03:55:02.108Z,0
2018-12-09T03:56:02.675Z,0
2018-12-09T03:57:03.244Z,0
2018-12-09T03:58:03.814Z,0
2018-12-09T03:59:22.148Z,0
2018-12-09T04:00:22.716Z,0
2018-12-09T04:01:23.287Z,0
2018-12-09T04:02:23.907Z,0
2018-12-09T04:03:24.516Z,0
2018-12-09T04:04:25.267Z,0
2018-12-09T04:05:25.830Z,0
2018-12-09T04:06:26.450Z,0
2018-12-09T04:07:27.019Z,0
2018-12-09T04:09:17.394Z,0
2018-12-09T04:10:31.801Z,0
2018-12-09T04:11:32.374Z,0
2018-12-09T04:12:32.951Z,0
2018-12-09T04:13:33.529Z,0
2018-12-09T04:14:34.103Z,0
2018-12-09T04:15:34.926Z,0
2018-12-09T04:16:35.500Z,0
2018-12-09T04:17:36.077Z,0
2018-12-09T04:18:36.649Z,0
2018-12-09T04:19:37.223Z,0
2018-12-09T04:20:37.850Z,0
2018-12-09T04:21:38.424Z,0
2018-12-09T04:22:39.051Z,0
2018-12-09T04:23:39.626Z,0
2018-12-09T04:24:40.200Z,0
2018-12-09T04:25:40.811Z,0
2018-12-09T04:26:41.385Z,0
2018-12-09T04:27:41.960Z,0
2018-12-09T04:28:42.586Z,0
2018-12-09T04:29:43.159Z,0
2018-12-09T04:30:43.734Z,0
2018-12-09T04:32:28.822Z,0
2018-12-09T04:33:29.586Z,0
2018-12-09T04:34:30.164Z,0
2018-12-09T04:35:30.738Z,0
2018-12-09T04:36:31.392Z,0
2018-12-09T04:37:31.913Z,0
2018-12-09T04:38:32.487Z,0
2018-12-09T04:39:33.063Z,0
2018-12-09T04:40:33.636Z,0
2018-12-09T04:41:34.211Z,0
2018-12-09T04:42:34.837Z,0
2018-12-09T04:43:35.410Z,0
2018-12-09T04:44:36.290Z,0
2018-12-09T04:45:36.863Z,0
2018-12-09T04:46:37.439Z,0
2018-12-09T04:47:38.014Z,0
2018-12-09T04:48:38.591Z,0
2018-12-09T04:49:39.356Z,0
2018-12-09T04:50:39.930Z,0
2018-12-09T04:51:40.506Z,0
2018-12-09T04:52:41.080Z,0
2018-12-09T04:54:26.168Z,0
2018-12-09T04:55:26.745Z,0
2018-12-09T04:56:27.364Z,0
2018-12-09T04:57:27.940Z,0
2018-12-09T04:58:28.512Z,0
2018-12-09T04:59:29.086Z,0
2018-12-09T05:00:29.661Z,0
2018-12-09T05:01:30.236Z,0
2018-12-09T05:02:31.042Z,0
2018-12-09T05:03:31.667Z,0
2018-12-09T05:04:32.240Z,0
2018-12-09T05:05:32.866Z,0
2018-12-09T05:06:33.439Z,0
2018-12-09T05:07:34.019Z,0
2018-12-09T05:08:34.589Z,0
2018-12-09T05:09:35.163Z,0
2018-12-09T05:10:35.738Z,0
2018-12-09T05:11:36.314Z,0
2018-12-09T05:12:36.926Z,0
2018-12-09T05:13:37.504Z,0
2018-12-09T05:14:38.078Z,0
2018-12-09T05:16:23.167Z,0
2018-12-09T05:17:23.745Z,0
2018-12-09T05:18:24.317Z,0
2018-12-09T05:19:24.892Z,0
2018-12-09T05:20:25.709Z,0
2018-12-09T05:21:26.283Z,0
2018-12-09T05:22:26.856Z,0
2018-12-09T05:23:27.431Z,0
2018-12-09T05:24:28.003Z,0
2018-12-09T05:25:28.576Z,0
2018-12-09T05:26:29.200Z,0
2018-12-09T05:27:29.824Z,0
2018-12-09T05:28:30.398Z,0
2018-12-09T05:29:30.972Z,0
2018-12-09T05:30:31.790Z,0
2018-12-09T05:31:32.366Z,0
2018-12-09T05:32:32.940Z,0
2018-12-09T05:33:33.519Z,0
2018-12-09T05:34:34.134Z,0
2018-12-09T05:35:34.708Z,0
2018-12-09T05:36:35.283Z,0
2018-12-09T05:38:20.422Z,0
2018-12-09T05:39:20.997Z,0
2018-12-09T05:40:21.570Z,0
2018-12-09T05:41:22.146Z,0
2018-12-09T05:42:22.769Z,0
2018-12-09T05:43:23.342Z,0
2018-12-09T05:44:23.915Z,0
2018-12-09T05:45:24.490Z,0
2018-12-09T05:46:25.064Z,0
2018-12-09T05:47:25.643Z,0
2018-12-09T05:48:26.605Z,0
2018-12-09T05:49:27.178Z,0
2018-12-09T05:50:27.753Z,0
2018-12-09T05:51:28.326Z,0
2018-12-09T05:52:28.901Z,0
2018-12-09T05:53:29.474Z,0
2018-12-09T05:54:30.049Z,0
2018-12-09T05:55:30.621Z,0
2018-12-09T05:56:31.196Z,0
2018-12-09T05:57:31.770Z,0
2018-12-09T05:58:32.647Z,0
2018-12-09T06:00:17.787Z,0
2018-12-09T06:01:18.363Z,0
2018-12-09T06:02:18.988Z,0
2018-12-09T06:03:19.562Z,0
2018-12-09T06:04:20.136Z,0
2018-12-09T06:05:20.758Z,0
2018-12-09T06:06:21.677Z,0
2018-12-09T06:07:22.252Z,0
2018-12-09T06:08:22.832Z,0
2018-12-09T06:09:23.400Z,0
2018-12-09T06:10:23.975Z,0
2018-12-09T06:11:24.549Z,0
2018-12-09T06:12:25.124Z,0
2018-12-09T06:13:25.698Z,0
2018-12-09T06:14:26.272Z,0
2018-12-09T06:15:26.847Z,0
2018-12-09T06:16:27.749Z,0
2018-12-09T06:17:28.373Z,0
2018-12-09T06:18:28.999Z,0
2018-12-09T06:19:29.579Z,0
2018-12-09T06:20:30.191Z,0
2018-12-09T06:22:15.329Z,0
2018-12-09T06:23:15.904Z,0
2018-12-09T06:24:16.689Z,0
2018-12-09T06:25:17.265Z,0
2018-12-09T06:26:17.838Z,0
2018-12-09T06:27:18.461Z,0
2018-12-09T06:28:19.036Z,0
2018-12-09T06:29:19.613Z,0
2018-12-09T06:30:20.287Z,0
2018-12-09T06:31:20.910Z,0
2018-12-09T06:32:21.483Z,0
2018-12-09T06:33:22.058Z,0
2018-12-09T06:34:22.952Z,0
2018-12-09T06:35:23.526Z,0
2018-12-09T06:36:24.102Z,0
2018-12-09T06:37:24.678Z,0
2018-12-09T06:38:25.250Z,0
2018-12-09T06:39:25.823Z,0
2018-12-09T06:40:26.448Z,0
2018-12-09T06:41:27.025Z,0
2018-12-09T06:42:27.597Z,0
2018-12-09T06:44:12.691Z,0
2018-12-09T06:45:13.268Z,0
2018-12-09T06:46:13.841Z,0
2018-12-09T06:47:14.467Z,0
2018-12-09T06:48:15.088Z,0
2018-12-09T06:49:15.661Z,0
2018-12-09T06:50:16.236Z,0
2018-12-09T06:51:16.811Z,0
2018-12-09T06:52:17.389Z,0
2018-12-09T06:53:17.962Z,0
2018-12-09T06:54:18.536Z,0
2018-12-09T06:55:19.160Z,0
2018-12-09T06:56:19.734Z,0
2018-12-09T06:57:20.313Z,0
2018-12-09T06:58:20.928Z,0
2018-12-09T06:59:21.504Z,0
2018-12-09T07:00:22.079Z,0
2018-12-09T07:01:23.079Z,0
2018-12-09T07:02:23.653Z,0
2018-12-09T07:03:24.228Z,0
2018-12-09T07:04:24.811Z,0
2018-12-09T07:06:09.991Z,0
2018-12-09T07:07:10.565Z,0
2018-12-09T07:08:11.297Z,0
2018-12-09T07:09:11.873Z,0
2018-12-09T07:10:12.446Z,0
2018-12-09T07:11:13.069Z,0
2018-12-09T07:12:13.643Z,0
2018-12-09T07:13:14.219Z,0
2018-12-09T07:14:14.791Z,0
2018-12-09T07:15:15.369Z,0
2018-12-09T07:16:15.939Z,0
2018-12-09T07:17:16.512Z,0
2018-12-09T07:18:17.325Z,0
2018-12-09T07:19:17.905Z,0
2018-12-09T07:20:18.478Z,0
2018-12-09T07:21:19.054Z,0
2018-12-09T07:22:19.627Z,0
2018-12-09T07:23:20.201Z,0
2018-12-09T07:24:20.826Z,0
2018-12-09T07:25:21.401Z,0
2018-12-09T07:26:21.975Z,0
2018-12-09T07:28:07.062Z,0
2018-12-09T07:29:07.689Z,0
2018-12-09T07:30:08.261Z,0
2018-12-09T07:31:08.836Z,0
2018-12-09T07:32:09.409Z,0
2018-12-09T07:33:09.981Z,0
2018-12-09T07:34:10.604Z,0
2018-12-09T07:35:11.177Z,0
2018-12-09T07:36:12.022Z,0
2018-12-09T07:37:12.596Z,0
2018-12-09T07:38:13.168Z,0
2018-12-09T07:39:13.742Z,0
2018-12-09T07:40:14.315Z,0
2018-12-09T07:41:14.893Z,0
2018-12-09T07:42:15.460Z,0
2018-12-09T07:43:16.033Z,0
2018-12-09T07:44:16.608Z,0
2018-12-09T07:45:17.229Z,0
2018-12-09T07:46:17.804Z,0
2018-12-09T07:47:18.380Z,0
2018-12-09T07:48:18.955Z,0
2018-12-09T07:50:04.094Z,0
2018-12-09T07:51:04.670Z,0
2018-12-09T07:52:05.247Z,0
2018-12-09T07:53:05.864Z,0
2018-12-09T07:54:06.436Z,0
2018-12-09T07:55:07.012Z,0
2018-12-09T07:56:07.635Z,0
2018-12-09T07:57:08.209Z,0
2018-12-09T07:58:08.781Z,0
2018-12-09T07:59:09.354Z,0
2018-12-09T08:00:09.929Z,0
2018-12-09T08:01:10.500Z,0
2018-12-09T08:02:11.073Z,0
2018-12-09T08:03:11.646Z,0
2018-12-09T08:04:12.218Z,0
2018-12-09T08:05:12.792Z,0
2018-12-09T08:06:13.418Z,0
2018-12-09T08:07:13.990Z,0
2018-12-09T08:08:14.567Z,0
2018-12-09T08:09:15.140Z,0
2018-12-09T08:10:15.717Z,0
2018-12-09T08:12:00.853Z,0
2018-12-09T08:13:01.428Z,0
2018-12-09T08:14:02.007Z,0
2018-12-09T08:15:02.629Z,0
2018-12-09T08:16:03.202Z,0
2018-12-09T08:17:03.774Z,0
2018-12-09T08:18:04.347Z,0
2018-12-09T08:19:04.975Z,0
2018-12-09T08:20:05.546Z,0
2018-12-09T08:21:06.119Z,0
2018-12-09T08:22:06.695Z,0
2018-12-09T08:23:07.271Z,0
2018-12-09T08:24:07.845Z,0
2018-12-09T08:25:08.423Z,0
2018-12-09T08:26:08.995Z,0
2018-12-09T08:27:09.567Z,0
2018-12-09T08:28:10.191Z,0
2018-12-09T08:29:10.767Z,0
2018-12-09T08:30:11.340Z,0
2018-12-09T08:31:11.915Z,0
2018-12-09T08:32:12.490Z,0
2018-12-09T08:33:57.579Z,0
2018-12-09T08:34:58.156Z,0
2018-12-09T08:35:58.779Z,0
2018-12-09T08:36:59.404Z,0
2018-12-09T08:37:59.978Z,0
2018-12-09T08:39:00.552Z,0
2018-12-09T08:40:01.128Z,0
2018-12-09T08:41:01.703Z,0
2018-12-09T08:42:02.277Z,0
2018-12-09T08:43:02.851Z,4
2018-12-09T08:44:03.427Z,4
2018-12-09T08:45:03.999Z,4
2018-12-09T08:46:04.624Z,4
2018-12-09T08:47:05.198Z,4
2018-12-09T08:48:05.772Z,4
2018-12-09T08:49:06.349Z,4
2018-12-09T08:50:06.924Z,4
2018-12-09T08:51:07.498Z,4
2018-12-09T08:52:08.073Z,0
2018-12-09T08:53:08.649Z,0
2018-12-09T08:55:55.170Z,4
2018-12-09T08:56:56.746Z,4
2018-12-09T08:57:57.313Z,4
2018-12-09T08:58:57.929Z,4
2018-12-09T08:59:58.495Z,0
2018-12-09T09:02:00.640Z,0
2018-12-09T09:03:01.215Z,0
2018-12-09T09:04:01.787Z,0
2018-12-09T09:05:02.362Z,0
2018-12-09T09:06:02.937Z,0
2018-12-09T09:07:03.513Z,0
2018-12-09T09:08:04.085Z,0
2018-12-09T09:09:04.659Z,0
2018-12-09T09:10:05.231Z,0
2018-12-09T09:11:05.805Z,0
2018-12-09T09:12:06.430Z,0
2018-12-09T09:13:07.003Z,0
2018-12-09T09:14:07.580Z,0
2018-12-09T09:15:08.205Z,0
2018-12-09T09:16:08.779Z,0
2018-12-09T09:17:53.865Z,4
2018-12-09T09:18:54.441Z,4
2018-12-09T09:19:55.017Z,4
2018-12-09T09:21:57.203Z,132
2018-12-09T09:22:57.773Z,1328
2018-12-09T09:23:58.344Z,1340
2018-12-09T09:24:58.917Z,1344
2018-12-09T09:26:29.277Z,1352
2018-12-09T09:27:29.856Z,1292
2018-12-09T09:28:30.435Z,1316
2018-12-09T09:29:31.067Z,1336
2018-12-09T09:30:31.645Z,1396
2018-12-09T09:31:32.227Z,1408
2018-12-09T09:32:32.805Z,1412
2018-12-09T09:33:33.388Z,1432
2018-12-09T09:34:34.010Z,1416
2018-12-09T09:35:34.592Z,1380
2018-12-09T09:36:35.169Z,1380
2018-12-09T09:37:35.950Z,1400
2018-12-09T09:38:36.567Z,1260
2018-12-09T09:39:37.250Z,1276
2018-12-09T09:40:37.775Z,1260
2018-12-09T09:41:38.356Z,1412
2018-12-09T09:42:38.937Z,1568
2018-12-09T09:43:39.511Z,1584
2018-12-09T09:44:41.073Z,1592
2018-12-09T09:45:41.664Z,1584
2018-12-09T09:46:42.296Z,1588
2018-12-09T09:48:27.389Z,1704
2018-12-09T09:49:27.969Z,1704
2018-12-09T09:50:28.548Z,1716
2018-12-09T09:51:29.125Z,1648
2018-12-09T09:52:29.704Z,1672
2018-12-09T09:53:30.281Z,1684
2018-12-09T09:54:30.861Z,1696
2018-12-09T09:55:31.490Z,1728
2018-12-09T09:56:32.067Z,1776
2018-12-09T09:57:32.646Z,1772
2018-12-09T09:58:33.230Z,1780
2018-12-09T09:59:33.803Z,1760
2018-12-09T10:00:34.384Z,1740
2018-12-09T10:01:34.962Z,1740
2018-12-09T10:02:35.538Z,1748
2018-12-09T10:03:36.167Z,1764
2018-12-09T10:04:36.747Z,1780
2018-12-09T10:05:37.323Z,1792
2018-12-09T10:06:37.902Z,1792
2018-12-09T10:07:38.481Z,1812
2018-12-09T10:08:39.111Z,1832
2018-12-09T10:10:24.205Z,1880
2018-12-09T10:11:24.786Z,1900
2018-12-09T10:12:25.366Z,1920
2018-12-09T10:13:25.985Z,1956
2018-12-09T10:14:26.616Z,1984
2018-12-09T10:15:27.235Z,2028
2018-12-09T10:16:27.812Z,2068
2018-12-09T10:17:28.394Z,2088
2018-12-09T10:18:28.970Z,2140
2018-12-09T10:19:29.553Z,2172
2018-12-09T10:20:30.129Z,2204
2018-12-09T10:21:30.707Z,2232
2018-12-09T10:22:31.337Z,2264
2018-12-09T10:23:31.908Z,2300
2018-12-09T10:24:32.485Z,2356
2018-12-09T10:25:33.116Z,2396
2018-12-09T10:26:36.629Z,2452
2018-12-09T10:27:35.265Z,2500
2018-12-09T10:28:36.655Z,2528
2018-12-09T10:29:37.271Z,2572
2018-12-09T10:30:37.851Z,2608
2018-12-09T10:32:22.995Z,2676
2018-12-09T10:33:28.626Z,2724
2018-12-09T10:34:29.206Z,2784
2018-12-09T10:35:29.783Z,2828
2018-12-09T10:36:30.363Z,2888
2018-12-09T10:37:30.942Z,2936
2018-12-09T10:38:31.521Z,2984
2018-12-09T10:39:32.100Z,3052
2018-12-09T10:40:32.678Z,3120
2018-12-09T10:41:33.261Z,3196
2018-12-09T10:42:33.889Z,3208
2018-12-09T10:43:34.470Z,3248
2018-12-09T10:44:35.048Z,3316
2018-12-09T10:45:35.626Z,3404
2018-12-09T10:46:36.257Z,3524
2018-12-09T10:47:36.836Z,3632
2018-12-09T10:48:37.420Z,3712
2018-12-09T10:49:38.200Z,3748
2018-12-09T10:50:38.778Z,3896
2018-12-09T10:51:39.358Z,4012
2018-12-09T10:52:39.939Z,4128
2018-12-09T10:54:25.034Z,4396
2018-12-09T10:55:25.615Z,4488
2018-12-09T10:56:26.195Z,4540
2018-12-09T10:57:26.775Z,4488
2018-12-09T10:58:27.355Z,4536
2018-12-09T10:59:27.935Z,4604
2018-12-09T11:00:28.567Z,4700
2018-12-09T11:01:29.147Z,4692
2018-12-09T11:02:29.728Z,4576
2018-12-09T11:03:30.307Z,4688
2018-12-09T11:04:30.891Z,4724
2018-12-09T11:05:31.468Z,4676
2018-12-09T11:06:32.047Z,4472
2018-12-09T11:07:32.680Z,4200
2018-12-09T11:08:33.260Z,3812
2018-12-09T11:09:33.841Z,3516
2018-12-09T11:10:34.422Z,3268
2018-12-09T11:11:35.049Z,3176
2018-12-09T11:12:35.635Z,3032
2018-12-09T11:13:36.211Z,2764
2018-12-09T11:14:36.790Z,2440
2018-12-09T11:16:21.885Z,2144
2018-12-09T11:17:22.469Z,2072
2018-12-09T11:18:23.044Z,2028
2018-12-09T11:19:23.623Z,2040
2018-12-09T11:20:24.254Z,2028
2018-12-09T11:21:30.480Z,2060
2018-12-09T11:22:26.405Z,2052
2018-12-09T11:23:26.985Z,2056
2018-12-09T11:24:27.565Z,2060
2018-12-09T11:25:28.237Z,2016
2018-12-09T11:26:28.817Z,1964
2018-12-09T11:27:29.394Z,2028
2018-12-09T11:28:29.973Z,2008
2018-12-09T11:29:30.604Z,2036
2018-12-09T11:30:31.185Z,1884
2018-12-09T11:31:31.766Z,1988
2018-12-09T11:32:32.347Z,1892
2018-12-09T11:33:32.930Z,1784
2018-12-09T11:34:33.549Z,1860
2018-12-09T11:35:34.129Z,1800
2018-12-09T11:36:34.709Z,1848
2018-12-09T11:38:19.802Z,1756
2018-12-09T11:39:20.383Z,1612
2018-12-09T11:40:20.962Z,1548
2018-12-09T11:41:21.540Z,1488
2018-12-09T11:42:22.192Z,1564
2018-12-09T11:43:22.799Z,1692
2018-12-09T11:44:23.379Z,1692
2018-12-09T11:45:23.961Z,1812
2018-12-09T11:46:24.588Z,1824
2018-12-09T11:47:25.167Z,1844
2018-12-09T11:48:25.748Z,1892
2018-12-09T11:49:26.326Z,1676
2018-12-09T11:50:26.907Z,1844
2018-12-09T11:51:27.530Z,1808
2018-12-09T11:52:28.113Z,1728
2018-12-09T11:53:28.731Z,1704
2018-12-09T11:55:52.690Z,1800
2018-12-09T11:56:53.261Z,1764
2018-12-09T11:58:00.101Z,1736
2018-12-09T11:59:00.730Z,1824
2018-12-09T12:00:01.309Z,1840
2018-12-09T12:01:01.894Z,1832
2018-12-09T12:02:02.473Z,1832
2018-12-09T12:03:03.100Z,1832
2018-12-09T12:04:03.681Z,1788
2018-12-09T12:05:04.309Z,1836
2018-12-09T12:06:04.889Z,1868
2018-12-09T12:07:05.469Z,1852
2018-12-09T12:08:06.048Z,1768
2018-12-09T12:09:06.629Z,1816
2018-12-09T12:10:07.206Z,1824
2018-12-09T12:11:07.836Z,1844
2018-12-09T12:12:08.415Z,1836
2018-12-09T12:13:08.993Z,1820
2018-12-09T12:14:09.574Z,1828
2018-12-09T12:15:10.154Z,1824
2018-12-09T12:16:10.737Z,1832
2018-12-09T12:17:55.827Z,1856
2018-12-09T12:18:56.458Z,1876
2018-12-09T12:19:57.037Z,1880
2018-12-09T12:20:57.666Z,1908
2018-12-09T12:21:58.245Z,1912
2018-12-09T12:22:58.875Z,1904
2018-12-09T12:23:59.548Z,1884
2018-12-09T12:25:00.078Z,1880
2018-12-09T12:26:00.657Z,1904
2018-12-09T12:27:01.237Z,1912
2018-12-09T12:28:01.815Z,1948
2018-12-09T12:29:02.392Z,1956
2018-12-09T12:30:02.975Z,1920
2018-12-09T12:31:03.657Z,1936
2018-12-09T12:32:04.334Z,1968
2018-12-09T12:33:04.914Z,2004
2018-12-09T12:34:05.542Z,2016
2018-12-09T12:35:06.121Z,2048
2018-12-09T12:36:06.703Z,2012
2018-12-09T12:37:07.283Z,2060
2018-12-09T12:38:07.860Z,2124
2018-12-09T12:39:52.971Z,2152
2018-12-09T12:40:53.580Z,2164
2018-12-09T12:41:54.159Z,2112
2018-12-09T12:42:54.738Z,2064
2018-12-09T12:43:55.318Z,2112
2018-12-09T12:44:55.909Z,2116
2018-12-09T12:45:56.476Z,2180
2018-12-09T12:46:57.057Z,2152
2018-12-09T12:47:57.835Z,2208
2018-12-09T12:48:58.464Z,2172
2018-12-09T12:49:59.043Z,2236
2018-12-09T12:50:59.623Z,2148
2018-12-09T12:52:00.252Z,2124
2018-12-09T12:53:00.830Z,2212
2018-12-09T12:54:01.454Z,2108
2018-12-09T12:55:02.033Z,2072
2018-12-09T12:56:02.615Z,1984
2018-12-09T12:57:03.192Z,1968
2018-12-09T12:58:03.773Z,1984
2018-12-09T12:59:04.352Z,2088
2018-12-09T13:00:04.933Z,2108
2018-12-09T13:01:50.026Z,2112
2018-12-09T13:02:50.607Z,2112
2018-12-09T13:03:51.186Z,2148
2018-12-09T13:04:51.764Z,2132
2018-12-09T13:05:52.394Z,2156
2018-12-09T13:06:52.972Z,2168
2018-12-09T13:07:53.552Z,2176
2018-12-09T13:08:54.182Z,2172
2018-12-09T13:09:54.809Z,2220
2018-12-09T13:10:55.432Z,2232
2018-12-09T13:11:56.013Z,2256
2018-12-09T13:12:56.682Z,2256
2018-12-09T13:13:57.211Z,2276
2018-12-09T13:14:57.791Z,2256
2018-12-09T13:15:58.370Z,2228
2018-12-09T13:16:58.950Z,2296
2018-12-09T13:17:59.529Z,2340
2018-12-09T13:19:00.107Z,2320
2018-12-09T13:20:00.691Z,2312
2018-12-09T13:21:01.361Z,2404
2018-12-09T13:22:01.941Z,2524
2018-12-09T13:23:47.036Z,2612
2018-12-09T13:24:47.618Z,2564
2018-12-09T13:25:48.197Z,2828
2018-12-09T13:26:48.826Z,3188
2018-12-09T13:27:49.456Z,2924
2018-12-09T13:28:50.086Z,3392
2018-12-09T13:29:50.667Z,3792
2018-12-09T13:30:51.249Z,3328
2018-12-09T13:31:51.873Z,3764
2018-12-09T13:32:52.503Z,3860
2018-12-09T13:33:53.086Z,3932
2018-12-09T13:37:14.580Z,3968
2018-12-09T13:38:15.168Z,4348
2018-12-09T13:39:15.744Z,4244
2018-12-09T13:40:16.366Z,3472
2018-12-09T13:41:16.946Z,4116
2018-12-09T13:42:17.528Z,4980
2018-12-09T13:43:18.161Z,6044
2018-12-09T13:44:18.792Z,4328
2018-12-09T13:45:19.422Z,5100
2018-12-09T13:46:20.004Z,4560
2018-12-09T13:47:20.584Z,5336
2018-12-09T13:48:21.163Z,4520
2018-12-09T13:49:21.745Z,4144
2018-12-09T13:50:22.369Z,5064
2018-12-09T13:51:22.951Z,4480
2018-12-09T13:52:23.533Z,5580
2018-12-09T13:53:24.114Z,4748
2018-12-09T13:54:24.695Z,5236
2018-12-09T13:55:25.277Z,4184
2018-12-09T13:56:25.860Z,3212
2018-12-09T13:58:10.953Z,3556
2018-12-09T13:59:11.538Z,4120
2018-12-09T14:00:12.117Z,4900
2018-12-09T14:01:12.748Z,3448
2018-12-09T14:02:13.380Z,5208
2018-12-09T14:03:14.012Z,4740
2018-12-09T14:04:14.594Z,4788
2018-12-09T14:05:15.179Z,4500
2018-12-09T14:06:15.760Z,4596
2018-12-09T14:07:16.338Z,5528
2018-12-09T14:08:16.920Z,4884
2018-12-09T14:09:17.546Z,5264
2018-12-09T14:10:18.128Z,6476
2018-12-09T14:11:18.709Z,4364
2018-12-09T14:12:19.293Z,7984
2018-12-09T14:13:19.874Z,5444
2018-12-09T14:14:20.456Z,3724
2018-12-09T14:15:21.039Z,6960
2018-12-09T14:16:21.624Z,13016
2018-12-09T14:17:22.300Z,13980
2018-12-09T14:18:22.882Z,12644
2018-12-09T14:20:07.981Z,16092
2018-12-09T14:21:08.565Z,16016
2018-12-09T14:22:09.198Z,16416
2018-12-09T14:23:09.830Z,16176
2018-12-09T14:24:10.412Z,18464
2018-12-09T14:25:10.999Z,19168
2018-12-09T14:26:11.580Z,20448
2018-12-09T14:27:13.308Z,23072
2018-12-09T14:28:13.739Z,34880
2018-12-09T14:29:14.324Z,36896
2018-12-09T14:30:14.909Z,27552
2018-12-09T14:31:15.492Z,22400
2018-12-09T14:32:16.079Z,21568
2018-12-09T14:33:16.661Z,21504
2018-12-09T14:34:17.245Z,21856
2018-12-09T14:35:17.831Z,21408
2018-12-09T14:36:18.415Z,21984
2018-12-09T14:37:19.003Z,21344
2018-12-09T14:38:19.638Z,20864
2018-12-09T14:39:20.226Z,20640
2018-12-09T14:40:20.811Z,20096
2018-12-09T14:42:05.961Z,19328
2018-12-09T14:43:06.598Z,18208
2018-12-09T14:44:07.184Z,17696
2018-12-09T14:45:07.768Z,15900
2018-12-09T14:46:08.353Z,14892
2018-12-09T14:47:08.940Z,16704
2018-12-09T14:48:09.528Z,17472
2018-12-09T14:49:10.113Z,18400
2018-12-09T14:50:10.702Z,18816
2018-12-09T14:51:11.283Z,18496
2018-12-09T14:52:11.870Z,18880
2018-12-09T14:53:12.459Z,19648
2018-12-09T14:54:13.094Z,20320
2018-12-09T14:55:13.679Z,19392
2018-12-09T14:56:14.265Z,17728
2018-12-09T14:57:14.853Z,17152
2018-12-09T14:58:15.442Z,18400
2018-12-09T14:59:16.023Z,19168
2018-12-09T15:00:16.612Z,18912
2018-12-09T15:01:17.249Z,19360
2018-12-09T15:02:17.837Z,19040
2018-12-09T15:04:02.991Z,19488
2018-12-09T15:05:03.577Z,20160
2018-12-09T15:06:04.166Z,20640
2018-12-09T15:07:04.802Z,19616